Time;durP1;ratioP1;P1;durP2;ratioP2;P2;SDS_P1;SDS_P2;PMS_P1;PMS_P2;Temp;Humidity;BMP_temperature;BMP_pressure;BME280_temperature;BME280_humidity;BME280_pressure;Samples;Min_cycle;Max_cycle;Signal;HPM_P1;HPM_P2
2021/08/10 00:00:11;;;;;;;8.27;1.92;;;;;;;13.66;87.72;99261.84;5036216;28;20057;-82
2021/08/10 00:02:38;;;;;;;6.60;2.63;;;;;;;13.56;88.56;99264.09;5043388;28;20053;-82
2021/08/10 00:05:06;;;;;;;5.82;2.10;;;;;;;13.37;88.64;99239.22;5052649;28;20045;-82
2021/08/10 00:07:33;;;;;;;2.90;2.00;;;;;;;13.30;89.10;99232.00;5041769;28;20065;-82
2021/08/10 00:10:01;;;;;;;4.05;1.80;;;;;;;13.47;88.72;99254.38;5046271;28;20052;-82
2021/08/10 00:12:31;;;;;;;3.50;1.85;;;;;;;13.45;88.95;99258.16;5052867;28;20052;-82
2021/08/10 00:14:58;;;;;;;5.78;1.88;;;;;;;13.41;89.00;99251.44;5047968;28;20045;-82
2021/08/10 00:17:24;;;;;;;4.57;1.90;;;;;;;13.37;88.84;99250.13;5049760;28;20048;-82
2021/08/10 00:19:51;;;;;;;5.32;2.40;;;;;;;13.46;89.24;99269.94;5053406;28;20041;-82
2021/08/10 00:22:18;;;;;;;6.25;2.45;;;;;;;13.39;88.85;99255.41;5049032;28;20055;-82
2021/08/10 00:24:47;;;;;;;4.28;1.75;;;;;;;13.56;87.36;99258.63;5050376;28;20548;-82
2021/08/10 00:27:46;;;;;;;5.82;2.13;;;;;;;13.47;86.91;99263.41;5051991;28;20060;-82
2021/08/10 00:30:13;;;;;;;9.90;2.50;;;;;;;13.33;87.76;99267.09;5039232;28;20107;-82
2021/08/10 00:32:40;;;;;;;3.05;1.77;;;;;;;13.36;88.26;99261.25;5036661;28;20099;-82
2021/08/10 00:35:07;;;;;;;8.50;2.40;;;;;;;13.24;87.90;99239.09;5046515;28;20053;-82
2021/08/10 00:37:34;;;;;;;6.07;1.98;;;;;;;13.13;88.35;99256.88;5053843;28;20390;-81
2021/08/10 00:40:01;;;;;;;3.00;2.00;;;;;;;13.07;88.72;99272.16;5046343;28;20044;-82
2021/08/10 00:42:29;;;;;;;9.18;2.47;;;;;;;13.03;88.98;99250.94;5053529;28;20047;-82
2021/08/10 00:44:56;;;;;;;2.42;1.58;;;;;;;13.19;88.40;99255.25;5042462;28;20045;-82
2021/08/10 00:47:23;;;;;;;5.78;2.13;;;;;;;13.24;88.35;99259.03;5051316;28;20049;-82
2021/08/10 00:49:50;;;;;;;4.10;1.80;;;;;;;13.04;88.81;99249.91;5045162;28;20053;-82
2021/08/10 00:52:16;;;;;;;2.70;1.75;;;;;;;13.12;88.71;99254.34;5033817;28;20057;-82
2021/08/10 00:54:43;;;;;;;3.65;1.95;;;;;;;13.15;88.34;99256.69;5038045;28;20045;-82
2021/08/10 00:57:10;;;;;;;5.90;2.03;;;;;;;13.15;88.41;99252.06;5053476;28;20510;-82
2021/08/10 00:59:38;;;;;;;6.50;2.05;;;;;;;12.89;89.24;99250.81;5048738;28;20492;-82
2021/08/10 01:02:06;;;;;;;4.57;2.03;;;;;;;12.99;89.12;99247.75;5045355;28;20053;-82
2021/08/10 01:04:35;;;;;;;2.95;2.03;;;;;;;12.97;89.05;99247.09;5049882;28;20049;-83
2021/08/10 01:07:09;;;;;;;5.97;2.10;;;;;;;13.05;88.86;99255.16;5046221;28;20056;-82
2021/08/10 01:09:47;;;;;;;4.88;2.40;;;;;;;12.98;88.89;99243.34;5049701;28;20500;-82
2021/08/10 01:12:17;;;;;;;6.57;2.00;;;;;;;13.07;88.80;99258.50;5047697;28;20065;-82
2021/08/10 01:14:49;;;;;;;4.60;2.08;;;;;;;12.97;88.32;99247.09;5048225;28;20045;-83
2021/08/10 01:17:21;;;;;;;3.80;1.77;;;;;;;12.75;88.39;99230.78;5043518;28;20048;-82
2021/08/10 01:20:25;;;;;;;5.07;2.28;;;;;;;12.71;89.18;99245.84;5039687;28;20058;-82
2021/08/10 01:22:55;;;;;;;5.10;2.00;;;;;;;12.77;89.35;99246.94;5037277;28;20045;-82
2021/08/10 01:25:38;;;;;;;4.35;2.10;;;;;;;12.78;89.07;99243.19;5050040;28;20400;-82
2021/08/10 01:28:24;;;;;;;3.63;1.90;;;;;;;12.87;88.71;99243.88;5042537;28;20045;-82
2021/08/10 01:31:04;;;;;;;3.42;1.90;;;;;;;12.73;88.91;99235.56;5048949;28;20118;-82
2021/08/10 01:33:37;;;;;;;2.92;1.80;;;;;;;12.78;89.35;99255.97;5042320;28;20095;-82
2021/08/10 01:36:05;;;;;;;6.28;2.10;;;;;;;12.58;89.97;99229.38;5041699;28;20103;-82
2021/08/10 01:38:34;;;;;;;9.57;2.35;;;;;;;12.72;89.60;99247.53;5038187;28;20123;-82
2021/08/10 01:41:02;;;;;;;7.70;1.80;;;;;;;12.79;88.78;99241.28;5035030;28;20053;-82
2021/08/10 01:43:30;;;;;;;5.82;2.20;;;;;;;12.65;89.00;99229.44;5047223;28;20052;-82
2021/08/10 01:45:58;;;;;;;3.30;2.20;;;;;;;12.72;88.93;99230.31;5048240;28;20119;-82
2021/08/10 01:48:26;;;;;;;6.65;2.13;;;;;;;12.63;89.73;99231.50;5044679;28;20053;-82
2021/08/10 01:50:57;;;;;;;4.43;2.05;;;;;;;12.70;88.92;99232.41;5050202;28;20485;-82
2021/08/10 01:53:26;;;;;;;4.40;2.00;;;;;;;12.48;89.27;99221.53;5041480;28;20045;-82
2021/08/10 01:55:56;;;;;;;6.68;2.13;;;;;;;12.26;89.66;99209.78;5052530;28;20110;-82
2021/08/10 01:58:24;;;;;;;4.32;1.83;;;;;;;12.46;89.42;99225.47;5037045;28;20073;-82
2021/08/10 02:00:52;;;;;;;3.28;1.90;;;;;;;12.42;89.29;99225.03;5047118;28;20114;-82
2021/08/10 02:03:19;;;;;;;2.95;1.98;;;;;;;12.35;89.58;99218.69;5042172;28;20477;-82
2021/08/10 02:05:48;;;;;;;3.05;1.77;;;;;;;12.40;89.69;99235.28;5044957;28;20091;-82
2021/08/10 02:08:17;;;;;;;5.32;2.20;;;;;;;12.51;89.52;99226.59;5050499;28;20531;-82
2021/08/10 02:10:46;;;;;;;2.65;1.77;;;;;;;12.49;89.20;99228.66;5045303;28;20044;-82
2021/08/10 02:13:14;;;;;;;5.30;2.47;;;;;;;12.44;89.06;99224.84;5043855;28;20076;-82
2021/08/10 02:15:42;;;;;;;2.38;1.67;;;;;;;12.39;89.59;99236.34;5040628;28;20053;-82
2021/08/10 02:18:10;;;;;;;3.08;2.13;;;;;;;12.37;90.21;99239.25;5051798;28;20447;-82
2021/08/10 02:20:38;;;;;;;2.83;1.75;;;;;;;12.30;90.05;99241.06;5040951;28;20502;-82
2021/08/10 02:23:07;;;;;;;3.85;1.92;;;;;;;12.40;89.61;99232.56;5049053;28;20045;-82
2021/08/10 02:25:37;;;;;;;6.32;2.30;;;;;;;12.39;89.52;99247.25;5034527;28;20543;-83
2021/08/10 02:28:06;;;;;;;4.22;1.73;;;;;;;12.29;89.22;99233.09;5045469;28;20107;-82
2021/08/10 02:30:37;;;;;;;5.63;1.85;;;;;;;12.34;89.43;99233.34;5048689;28;20048;-82
2021/08/10 02:33:07;;;;;;;5.15;1.92;;;;;;;12.23;90.60;99223.81;5043172;28;20045;-82
2021/08/10 02:35:34;;;;;;;5.70;1.92;;;;;;;12.17;90.59;99216.41;5041473;28;20041;-82
2021/08/10 02:38:04;;;;;;;3.28;2.00;;;;;;;12.16;90.82;99218.28;5034758;28;20057;-82
2021/08/10 02:40:32;;;;;;;3.92;2.30;;;;;;;12.09;90.61;99213.78;5040051;28;20334;-82
2021/08/10 02:43:02;;;;;;;4.30;2.22;;;;;;;12.07;91.57;99207.69;5037003;28;20389;-82
2021/08/10 02:45:29;;;;;;;3.88;1.95;;;;;;;12.15;90.84;99218.47;5038991;28;20045;-82
2021/08/10 02:47:58;;;;;;;2.80;1.80;;;;;;;12.24;90.74;99217.31;5043881;28;20081;-82
2021/08/10 02:50:26;;;;;;;5.70;2.40;;;;;;;12.15;91.14;99211.16;5034267;28;20049;-82
2021/08/10 02:52:53;;;;;;;6.03;2.20;;;;;;;12.03;91.07;99205.38;5041314;28;20045;-82
2021/08/10 02:55:21;;;;;;;6.50;2.00;;;;;;;12.17;91.32;99221.84;5049629;28;20052;-82
2021/08/10 02:57:54;;;;;;;6.97;1.95;;;;;;;12.14;91.06;99211.34;5047409;28;20136;-82
2021/08/10 03:00:24;;;;;;;4.20;1.90;;;;;;;12.04;91.13;99201.63;5035057;28;20082;-82
2021/08/10 03:02:55;;;;;;;3.75;2.05;;;;;;;12.03;91.23;99199.91;5040491;28;20099;-82
2021/08/10 03:05:24;;;;;;;3.38;2.25;;;;;;;12.05;91.10;99202.44;5038859;28;20409;-82
2021/08/10 03:07:54;;;;;;;6.65;1.90;;;;;;;12.03;92.07;99209.97;5051352;28;20106;-82
2021/08/10 03:10:22;;;;;;;2.17;1.90;;;;;;;11.99;91.22;99192.31;5045574;28;20053;-82
2021/08/10 03:12:51;;;;;;;5.20;2.05;;;;;;;12.07;91.16;99215.88;5051062;28;20068;-82
2021/08/10 03:15:23;;;;;;;8.48;1.80;;;;;;;12.00;91.78;99211.19;5040513;28;20045;-82
2021/08/10 03:17:57;;;;;;;2.90;1.92;;;;;;;12.08;91.13;99223.03;5036042;28;20143;-82
2021/08/10 03:20:24;;;;;;;2.63;1.90;;;;;;;11.86;91.34;99201.16;5044434;28;20052;-81
2021/08/10 03:22:53;;;;;;;3.05;1.83;;;;;;;12.01;91.46;99225.66;5036795;28;20053;-82
2021/08/10 03:25:23;;;;;;;3.83;1.60;;;;;;;12.04;90.80;99231.59;5040409;28;20095;-82
2021/08/10 03:27:51;;;;;;;4.93;1.83;;;;;;;11.93;90.87;99218.44;5037333;28;20080;-82
2021/08/10 03:30:19;;;;;;;4.47;1.90;;;;;;;11.89;91.34;99233.44;5033607;28;20103;-82
2021/08/10 03:32:47;;;;;;;3.08;1.80;;;;;;;11.82;91.30;99213.47;5044513;28;20042;-82
2021/08/10 03:35:16;;;;;;;5.88;2.05;;;;;;;11.87;91.35;99230.91;5035071;28;20052;-82
2021/08/10 03:37:44;;;;;;;4.78;1.88;;;;;;;11.82;92.17;99240.72;5047794;28;20049;-82
2021/08/10 03:40:13;;;;;;;6.22;2.00;;;;;;;11.85;92.21;99238.44;5049117;28;20053;-82
2021/08/10 03:42:41;;;;;;;5.63;1.65;;;;;;;11.91;91.99;99233.25;5037949;28;20532;-83
2021/08/10 03:45:19;;;;;;;2.42;1.85;;;;;;;11.86;92.09;99217.50;5053219;28;20455;-82
2021/08/10 03:47:47;;;;;;;6.53;2.25;;;;;;;11.87;92.80;99219.19;5037186;28;20041;-82
2021/08/10 03:50:16;;;;;;;5.13;2.45;;;;;;;12.04;92.17;99231.59;5053893;28;20045;-83
2021/08/10 03:52:48;;;;;;;3.10;1.73;;;;;;;11.98;91.71;99223.31;5053894;28;20107;-82
2021/08/10 03:55:15;;;;;;;7.65;2.33;;;;;;;11.98;92.28;99231.50;5037359;28;20045;-82
2021/08/10 03:57:47;;;;;;;5.38;2.00;;;;;;;11.85;92.77;99221.28;5034992;28;20048;-82
2021/08/10 04:00:16;;;;;;;3.78;1.77;;;;;;;11.89;92.55;99229.91;5048679;28;20090;-82
2021/08/10 04:02:46;;;;;;;3.17;2.13;;;;;;;11.98;92.72;99240.53;5054422;28;20057;-82
2021/08/10 04:05:13;;;;;;;;;;;;;;;12.08;92.30;99231.19;5043984;28;20058;-82
2021/08/10 04:07:42;;;;;;;2.75;2.03;;;;;;;12.13;91.53;99226.81;5035216;28;19968;-82
2021/08/10 04:10:11;;;;;;;2.75;1.90;;;;;;;12.03;92.80;99232.59;5050107;28;20045;-82
2021/08/10 04:12:38;;;;;;;2.70;1.70;;;;;;;11.99;92.87;99203.22;5034288;28;20103;-81
2021/08/10 04:15:17;;;;;;;2.30;1.65;;;;;;;12.09;92.71;99213.78;5051907;28;20071;-85
2021/08/10 04:17:44;;;;;;;6.40;2.15;;;;;;;12.27;93.02;99241.47;5034536;28;20046;-82
2021/08/10 04:20:13;;;;;;;2.72;1.88;;;;;;;12.20;92.58;99214.13;5052449;28;20183;-83
2021/08/10 04:22:42;;;;;;;3.35;2.38;;;;;;;12.28;93.15;99237.69;5052406;28;20499;-84
2021/08/10 04:25:10;;;;;;;5.55;3.08;;;;;;;12.39;93.21;99239.06;5053995;28;20094;-84
2021/08/10 04:27:36;;;;;;;3.30;2.15;;;;;;;12.33;92.90;99242.53;5041704;28;20100;-84
2021/08/10 04:30:04;;;;;;;6.38;2.50;;;;;;;12.59;91.98;99249.31;5033930;28;20052;-83
2021/08/10 04:32:30;;;;;;;5.20;2.38;;;;;;;12.62;92.40;99255.22;5038718;28;20042;-83
2021/08/10 04:34:58;;;;;;;5.78;2.22;;;;;;;12.49;92.13;99236.00;5046113;28;20053;-84
2021/08/10 04:37:25;;;;;;;4.93;2.40;;;;;;;12.50;92.83;99251.31;5038038;28;20051;-83
2021/08/10 04:39:53;;;;;;;3.08;1.73;;;;;;;12.66;92.59;99258.38;5037762;28;20452;-83
2021/08/10 04:42:20;;;;;;;3.38;2.03;;;;;;;12.62;94.05;99257.94;5036995;28;20106;-84
2021/08/10 04:44:47;;;;;;;2.63;2.03;;;;;;;12.63;94.17;99243.28;5039726;28;20049;-84
2021/08/10 04:47:20;;;;;;;3.33;2.17;;;;;;;12.56;94.30;99226.84;5035327;28;20046;-84
2021/08/10 04:49:47;;;;;;;3.38;2.30;;;;;;;12.73;94.43;99238.31;5051561;28;20241;-83
2021/08/10 04:52:13;;;;;;;7.13;2.50;;;;;;;12.76;94.31;99239.81;5052541;28;20447;-84
2021/08/10 04:54:40;;;;;;;7.45;2.40;;;;;;;12.77;93.58;99244.22;5042246;28;20634;-83
2021/08/10 04:57:08;;;;;;;2.38;1.95;;;;;;;12.73;93.82;99232.84;5053503;28;20044;-83
2021/08/10 04:59:38;;;;;;;4.22;2.28;;;;;;;12.97;93.24;99243.53;5053248;28;20056;-84
2021/08/10 05:02:05;;;;;;;4.25;1.83;;;;;;;12.92;92.35;99241.41;5033993;28;20448;-84
2021/08/10 05:04:31;;;;;;;5.85;2.03;;;;;;;12.93;93.02;99237.63;5042098;28;20049;-83
2021/08/10 05:06:58;;;;;;;6.25;2.10;;;;;;;13.04;93.12;99256.19;5046738;28;20045;-84
2021/08/10 05:09:25;;;;;;;8.25;2.40;;;;;;;13.16;92.89;99255.63;5053249;28;20045;-83
2021/08/10 05:11:52;;;;;;;2.35;2.15;;;;;;;13.21;92.89;99253.97;5041699;28;20409;-84
2021/08/10 05:14:20;;;;;;;5.88;2.50;;;;;;;13.20;91.42;99243.25;5040707;28;20127;-83
2021/08/10 05:17:03;;;;;;;8.55;2.63;;;;;;;13.32;91.72;99255.31;5045476;28;20373;-84
2021/08/10 05:19:33;;;;;;;4.13;2.60;;;;;;;13.35;92.98;99246.75;5052422;28;20492;-83
2021/08/10 05:22:00;;;;;;;5.22;2.60;;;;;;;13.35;91.95;99254.09;5046843;28;20110;-85
2021/08/10 05:24:26;;;;;;;7.70;2.20;;;;;;;13.40;92.45;99262.56;5033128;28;20103;-85
2021/08/10 05:26:53;;;;;;;2.15;1.88;;;;;;;13.39;92.56;99258.13;5035870;28;20053;-84
2021/08/10 05:29:21;;;;;;;10.25;2.38;;;;;;;13.41;92.66;99262.34;5047047;28;20245;-84
2021/08/10 05:31:48;;;;;;;10.73;2.17;;;;;;;13.42;91.32;99274.09;5052337;28;20056;-84
2021/08/10 05:34:15;;;;;;;4.97;1.73;;;;;;;13.38;90.98;99264.63;5046461;28;20041;-84
2021/08/10 05:36:41;;;;;;;5.25;2.05;;;;;;;13.40;90.42;99284.41;5044248;28;20045;-83
2021/08/10 05:39:08;;;;;;;3.35;2.20;;;;;;;13.44;89.61;99275.59;5047897;28;20124;-84
2021/08/10 05:41:35;;;;;;;3.33;2.20;;;;;;;13.59;90.22;99275.47;5052092;28;20041;-84
2021/08/10 05:44:02;;;;;;;3.65;2.22;;;;;;;13.74;90.69;99260.81;5047475;28;20049;-83
2021/08/10 05:46:30;;;;;;;9.27;2.20;;;;;;;13.79;89.89;99275.56;5051635;28;20086;-84
2021/08/10 05:49:02;;;;;;;7.35;2.50;;;;;;;13.78;90.12;99281.22;5046718;28;20115;-83
2021/08/10 05:51:28;;;;;;;7.10;2.53;;;;;;;13.78;90.38;99271.13;5050187;28;20048;-83
2021/08/10 05:53:55;;;;;;;7.00;2.22;;;;;;;13.91;90.27;99281.31;5053642;28;20064;-83
2021/08/10 05:56:22;;;;;;;2.90;2.33;;;;;;;14.04;89.84;99285.97;5053669;28;20098;-83
2021/08/10 05:58:49;;;;;;;3.97;2.22;;;;;;;13.94;90.57;99282.75;5053640;28;20052;-83
2021/08/10 06:01:18;;;;;;;4.43;2.78;;;;;;;14.02;89.85;99298.16;5053673;28;20485;-83
2021/08/10 06:03:46;;;;;;;3.45;2.47;;;;;;;14.12;89.84;99287.66;5052715;28;20060;-83
2021/08/10 06:06:13;;;;;;;5.05;1.85;;;;;;;14.26;90.40;99285.84;5032432;28;20460;-83
2021/08/10 06:08:40;;;;;;;2.88;1.95;;;;;;;14.46;89.40;99274.94;5041259;28;20041;-84
2021/08/10 06:11:10;;;;;;;7.05;2.40;;;;;;;14.54;88.76;99269.25;5033900;28;20052;-83
2021/08/10 06:13:37;;;;;;;4.35;2.08;;;;;;;14.86;87.60;99283.22;5045009;28;20045;-84
2021/08/10 06:16:04;;;;;;;5.20;2.03;;;;;;;15.06;88.22;99293.34;5032341;28;20045;-84
2021/08/10 06:18:31;;;;;;;6.93;2.10;;;;;;;15.57;86.10;99271.56;5036781;28;20094;-84
2021/08/10 06:20:59;;;;;;;4.82;2.30;;;;;;;16.10;83.25;99280.69;5038999;28;20049;-84
2021/08/10 06:23:25;;;;;;;9.57;2.00;;;;;;;16.83;80.56;99271.16;5051281;28;20040;-84
2021/08/10 06:25:52;;;;;;;7.43;2.03;;;;;;;17.35;79.78;99262.69;5050282;28;20052;-84
2021/08/10 06:28:19;;;;;;;4.78;2.53;;;;;;;17.43;81.77;99245.06;5047860;28;20473;-84
2021/08/10 06:30:46;;;;;;;3.95;2.08;;;;;;;18.08;79.91;99255.53;5041983;28;20110;-84
2021/08/10 06:33:13;;;;;;;8.73;2.35;;;;;;;18.62;76.28;99250.09;5043850;28;20068;-84
2021/08/10 06:35:40;;;;;;;4.47;1.88;;;;;;;18.60;74.95;99255.00;5050755;28;20044;-84
2021/08/10 06:38:08;;;;;;;10.68;2.25;;;;;;;17.97;74.53;99257.13;5042605;28;20064;-84
2021/08/10 06:40:35;;;;;;;3.60;2.33;;;;;;;17.72;76.84;99248.97;5043258;28;20447;-84
2021/08/10 06:43:02;;;;;;;4.13;2.40;;;;;;;17.61;79.34;99236.81;5051094;28;20060;-84
2021/08/10 06:45:30;;;;;;;6.28;2.50;;;;;;;17.77;78.99;99260.09;5039975;28;20041;-84
2021/08/10 06:48:01;;;;;;;8.40;2.25;;;;;;;17.77;78.37;99251.03;5047166;28;20103;-85
2021/08/10 06:50:28;;;;;;;8.48;2.33;;;;;;;17.71;77.05;99244.53;5051128;28;20060;-84
2021/08/10 06:55:50;;;;;;;7.40;2.63;;;;;;;17.81;77.92;99241.22;5035627;28;20048;-86
2021/08/10 06:58:17;;;;;;;9.57;2.47;;;;;;;17.96;77.52;99240.88;5035569;28;20056;-85
2021/08/10 07:00:44;;;;;;;6.57;2.20;;;;;;;17.92;76.88;99236.91;5036410;28;20049;-85
2021/08/10 07:03:11;;;;;;;5.50;2.08;;;;;;;17.81;77.60;99241.22;5048437;28;20049;-85
2021/08/10 07:05:40;;;;;;;7.20;2.45;;;;;;;17.87;76.75;99243.09;5049044;28;20048;-85
2021/08/10 07:08:07;;;;;;;4.90;2.22;;;;;;;17.82;76.67;99226.41;5048969;28;20055;-85
2021/08/10 07:10:34;;;;;;;8.63;2.63;;;;;;;18.06;76.66;99246.66;5044086;28;20060;-85
2021/08/10 07:13:02;;;;;;;11.13;2.88;;;;;;;18.08;76.44;99233.53;5041945;28;20431;-85
2021/08/10 07:15:30;;;;;;;7.70;2.72;;;;;;;18.28;75.41;99240.69;5037673;28;20508;-84
2021/08/10 07:17:57;;;;;;;9.43;2.20;;;;;;;18.61;74.46;99233.81;5045446;28;20092;-84
2021/08/10 07:20:25;;;;;;;5.82;2.58;;;;;;;18.93;72.82;99232.47;5053763;28;20049;-85
2021/08/10 07:22:52;;;;;;;7.40;1.95;;;;;;;18.95;71.23;99234.97;5052341;28;20053;-85
2021/08/10 07:25:20;;;;;;;11.98;2.60;;;;;;;19.08;71.46;99242.19;5054893;28;20075;-84
2021/08/10 07:27:47;;;;;;;4.05;2.40;;;;;;;19.32;71.83;99240.25;5045122;28;20094;-84
2021/08/10 07:30:17;;;;;;;6.15;3.30;;;;;;;19.88;69.86;99217.78;5055259;28;20095;-84
2021/08/10 07:32:45;;;;;;;3.55;2.10;;;;;;;20.53;67.93;99222.03;5047547;28;20098;-84
2021/08/10 07:35:12;;;;;;;8.50;2.30;;;;;;;21.03;65.48;99225.94;5054603;28;20045;-85
2021/08/10 07:37:40;;;;;;;4.50;2.05;;;;;;;21.17;63.46;99209.88;5049401;28;20057;-84
2021/08/10 07:40:09;;;;;;;6.03;2.00;;;;;;;21.09;64.57;99202.00;5039437;28;20535;-84
2021/08/10 07:42:35;;;;;;;5.10;2.22;;;;;;;21.39;65.54;99213.50;5053413;28;20488;-84
2021/08/10 07:45:02;;;;;;;5.53;1.90;;;;;;;21.42;65.03;99192.78;5034237;28;20049;-84
2021/08/10 07:47:31;;;;;;;4.38;2.05;;;;;;;21.38;64.70;99188.88;5052681;28;20424;-84
2021/08/10 07:49:57;;;;;;;5.15;2.03;;;;;;;21.48;66.38;99208.38;5035092;28;20045;-84
2021/08/10 07:52:24;;;;;;;6.15;1.88;;;;;;;21.22;65.46;99202.47;5048969;28;20068;-84
2021/08/10 07:54:51;;;;;;;6.57;1.95;;;;;;;21.07;65.35;99191.19;5053021;28;20095;-84
2021/08/10 07:57:18;;;;;;;12.57;2.50;;;;;;;21.30;66.29;99206.75;5051134;28;20041;-84
2021/08/10 07:59:45;;;;;;;4.65;1.75;;;;;;;21.16;65.10;99186.91;5034843;28;20099;-84
2021/08/10 08:02:11;;;;;;;5.47;2.35;;;;;;;21.22;64.59;99208.00;5037405;28;20543;-82
2021/08/10 08:04:44;;;;;;;9.90;1.98;;;;;;;21.33;64.36;99211.78;5036130;28;20059;-84
2021/08/10 08:07:11;;;;;;;8.52;2.17;;;;;;;20.94;65.06;99213.63;5051156;28;20072;-84
2021/08/10 08:09:38;;;;;;;8.02;2.10;;;;;;;21.08;64.05;99203.94;5053902;28;20041;-84
2021/08/10 08:12:06;;;;;;;6.15;1.52;;;;;;;21.30;63.42;99189.31;5053688;28;20059;-84
2021/08/10 08:14:33;;;;;;;4.13;1.83;;;;;;;21.28;62.74;99186.78;5053258;28;20049;-84
2021/08/10 08:17:00;;;;;;;4.03;2.30;;;;;;;21.43;63.17;99177.06;5049445;28;20099;-84
2021/08/10 08:19:29;;;;;;;3.92;1.95;;;;;;;21.13;63.28;99186.59;5050434;28;20068;-84
2021/08/10 08:21:58;;;;;;;6.83;1.97;;;;;;;20.95;63.55;99191.28;5042902;28;20396;-84
2021/08/10 08:24:27;;;;;;;4.57;2.10;;;;;;;20.74;65.91;99190.13;5053388;28;20049;-84
2021/08/10 08:26:54;;;;;;;7.30;3.10;;;;;;;20.51;64.39;99171.75;5053088;28;20052;-84
2021/08/10 08:29:23;;;;;;;4.47;2.08;;;;;;;20.39;66.58;99213.25;5052161;28;20110;-84
2021/08/10 08:31:50;;;;;;;8.98;2.15;;;;;;;20.46;66.25;99207.53;5034324;28;20056;-84
2021/08/10 08:34:16;;;;;;;10.15;1.98;;;;;;;20.76;67.46;99209.19;5044042;28;20050;-82
2021/08/10 08:36:45;;;;;;;4.35;1.65;;;;;;;21.04;65.13;99205.50;5040130;28;20451;-82
2021/08/10 08:39:13;;;;;;;3.17;2.08;;;;;;;20.91;63.57;99198.41;5051204;28;20052;-82
2021/08/10 08:41:41;;;;;;;2.92;1.83;;;;;;;20.80;64.35;99211.22;5054200;28;20071;-82
2021/08/10 08:44:08;;;;;;;6.70;1.83;;;;;;;21.01;66.29;99212.38;5051600;28;20086;-83
2021/08/10 08:46:38;;;;;;;10.15;2.45;;;;;;;20.97;63.37;99207.59;5053029;28;20095;-83
2021/08/10 08:49:08;;;;;;;3.33;2.22;;;;;;;21.00;62.59;99209.88;5052421;28;20041;-82
2021/08/10 08:51:36;;;;;;;5.10;1.77;;;;;;;20.71;63.33;99209.97;5034012;28;20095;-82
2021/08/10 08:54:03;;;;;;;5.32;1.73;;;;;;;21.04;62.20;99228.44;5034530;28;20049;-82
2021/08/10 08:56:31;;;;;;;4.93;1.80;;;;;;;21.14;61.44;99210.38;5052791;28;20044;-84
2021/08/10 08:58:58;;;;;;;7.93;2.00;;;;;;;21.26;62.45;99211.09;5048801;28;20053;-83
2021/08/10 09:01:25;;;;;;;4.80;2.05;;;;;;;21.52;61.01;99222.56;5040239;28;20100;-82
2021/08/10 09:03:52;;;;;;;8.50;2.03;;;;;;;21.47;60.10;99227.97;5052451;28;20049;-82
2021/08/10 09:06:19;;;;;;;7.10;2.20;;;;;;;21.45;60.39;99211.63;5042066;28;20053;-82
2021/08/10 09:08:47;;;;;;;3.35;2.10;;;;;;;21.80;59.76;99227.09;5051902;28;20125;-82
2021/08/10 09:11:18;;;;;;;3.75;1.75;;;;;;;21.87;59.99;99227.69;5048875;28;20057;-82
2021/08/10 09:13:57;;;;;;;7.18;2.10;;;;;;;22.07;58.35;99229.03;5052032;28;20562;-82
2021/08/10 09:16:24;;;;;;;10.85;2.10;;;;;;;21.89;58.45;99233.84;5050979;28;20130;-82
2021/08/10 09:18:51;;;;;;;7.32;1.90;;;;;;;22.12;58.09;99231.88;5033292;28;20050;-82
2021/08/10 09:21:21;;;;;;;4.82;2.10;;;;;;;22.48;56.41;99220.38;5039031;28;20053;-82
2021/08/10 09:23:50;;;;;;;4.75;2.10;;;;;;;22.45;58.43;99207.91;5035925;28;20057;-82
2021/08/10 09:26:23;;;;;;;4.95;1.70;;;;;;;22.31;56.75;99214.91;5041784;28;20053;-82
2021/08/10 09:28:59;;;;;;;20.35;3.35;;;;;;;22.47;57.21;99215.94;5033424;28;20103;-82
2021/08/10 09:31:46;;;;;;;4.63;1.85;;;;;;;22.51;56.14;99217.94;5047246;28;20562;-82
2021/08/10 09:34:19;;;;;;;7.15;2.10;;;;;;;22.30;56.70;99211.31;5044487;28;20049;-82
2021/08/10 09:36:47;;;;;;;3.97;1.60;;;;;;;22.16;56.26;99208.13;5033365;28;20179;-82
2021/08/10 09:39:14;;;;;;;6.97;1.70;;;;;;;22.32;59.29;99211.91;5036945;28;20123;-82
2021/08/10 09:42:01;;;;;;;4.18;1.45;;;;;;;22.35;56.20;99216.94;5050013;28;20512;-82
2021/08/10 09:44:29;;;;;;;7.43;1.73;;;;;;;22.56;57.29;99215.19;5043248;28;20056;-82
2021/08/10 09:46:58;;;;;;;3.50;1.60;;;;;;;22.68;55.04;99214.22;5038023;28;20049;-82
2021/08/10 09:49:43;;;;;;;7.53;1.67;;;;;;;22.38;54.50;99210.03;5032880;28;20095;-82
2021/08/10 09:52:23;;;;;;;2.83;1.63;;;;;;;22.36;55.10;99217.78;5042097;28;20053;-82
2021/08/10 09:54:50;;;;;;;4.80;1.50;;;;;;;22.63;54.38;99209.47;5051766;28;20088;-82
2021/08/10 09:57:17;;;;;;;3.42;1.30;;;;;;;22.79;52.50;99216.81;5049185;28;20064;-82
2021/08/10 09:59:45;;;;;;;3.63;1.60;;;;;;;22.72;54.33;99207.03;5052456;28;20060;-83
2021/08/10 10:02:18;;;;;;;5.75;1.45;;;;;;;22.63;52.13;99217.75;5050669;28;20057;-82
2021/08/10 10:04:50;;;;;;;4.72;1.50;;;;;;;23.04;51.78;99214.50;5051874;28;20052;-83
2021/08/10 10:07:16;;;;;;;4.47;1.00;;;;;;;23.19;55.07;99216.59;5051629;28;20137;-82
2021/08/10 10:09:45;;;;;;;3.58;1.40;;;;;;;23.20;52.46;99216.31;5051617;28;20048;-83
2021/08/10 10:12:12;;;;;;;4.38;1.38;;;;;;;23.22;50.53;99225.19;5043354;28;20041;-83
2021/08/10 10:14:39;;;;;;;6.10;1.98;;;;;;;23.06;51.96;99228.91;5049567;28;20045;-82
2021/08/10 10:17:10;;;;;;;3.60;1.40;;;;;;;23.05;53.44;99207.84;5041603;28;20053;-83
2021/08/10 10:19:39;;;;;;;2.92;1.63;;;;;;;23.29;52.07;99223.03;5036372;28;20092;-82
2021/08/10 10:22:14;;;;;;;7.13;1.67;;;;;;;23.38;54.29;99223.38;5032422;28;20045;-83
2021/08/10 10:24:49;;;;;;;3.80;1.30;;;;;;;23.33;50.67;99215.84;5043492;28;20139;-83
2021/08/10 10:27:17;;;;;;;5.57;1.77;;;;;;;23.57;53.26;99211.81;5049610;28;20085;-82
2021/08/10 10:29:47;;;;;;;2.80;1.30;;;;;;;23.46;51.42;99214.53;5049664;28;20556;-83
2021/08/10 10:32:18;;;;;;;4.57;1.67;;;;;;;23.37;51.50;99218.09;5049784;28;20115;-83
2021/08/10 10:34:46;;;;;;;4.25;1.40;;;;;;;23.82;49.99;99225.81;5051096;28;20045;-83
2021/08/10 10:37:19;;;;;;;7.28;1.65;;;;;;;23.85;49.34;99205.03;5042780;28;20063;-82
2021/08/10 10:39:46;;;;;;;3.75;1.10;;;;;;;24.19;49.63;99219.31;5046736;28;20102;-83
2021/08/10 10:42:15;;;;;;;5.72;1.60;;;;;;;24.13;47.35;99214.84;5051527;28;20049;-82
2021/08/10 10:44:43;;;;;;;6.87;1.57;;;;;;;24.02;48.04;99218.69;5046889;28;20042;-83
2021/08/10 10:47:37;;;;;;;3.10;1.23;;;;;;;24.61;49.74;99209.13;5032078;28;20060;-83
2021/08/10 10:50:15;;;;;;;3.70;1.25;;;;;;;24.43;47.56;99213.22;5039482;28;20492;-83
2021/08/10 10:53:02;;;;;;;4.75;1.80;;;;;;;24.30;47.13;99210.97;5052146;28;20114;-83
2021/08/10 10:55:45;;;;;;;5.28;1.73;;;;;;;24.17;47.22;99201.25;5054246;28;20049;-83
2021/08/10 10:58:34;;;;;;;3.83;1.30;;;;;;;24.22;47.85;99204.03;5054754;28;20041;-83
2021/08/10 11:01:14;;;;;;;5.53;2.10;;;;;;;24.38;49.67;99207.69;5051308;28;20106;-82
2021/08/10 11:04:14;;;;;;;3.38;1.50;;;;;;;24.45;48.72;99207.41;5038598;28;20084;-82
2021/08/10 11:06:46;;;;;;;5.63;1.60;;;;;;;24.78;48.75;99199.69;5055031;28;20055;-83
2021/08/10 11:09:59;;;;;;;3.22;1.55;;;;;;;25.04;47.35;99204.13;5053338;28;20500;-83
2021/08/10 11:12:45;;;;;;;5.30;1.50;;;;;;;25.60;45.86;99194.84;5047112;28;20053;-83
2021/08/10 11:15:19;;;;;;;5.13;2.08;;;;;;;25.46;45.27;99192.94;5046148;28;20055;-84
2021/08/10 11:18:19;;;;;;;4.18;1.77;;;;;;;25.61;47.34;99199.28;5051589;28;20045;-83
2021/08/10 11:20:49;;;;;;;4.97;2.28;;;;;;;25.32;45.60;99195.47;5040150;28;20052;-83
2021/08/10 11:23:32;;;;;;;;;;;;;;;25.07;49.94;99206.34;5042515;28;20068;-83
2021/08/10 11:26:32;;;;;;;5.70;1.75;;;;;;;25.13;47.34;99187.69;5052974;28;19932;-82
2021/08/10 11:28:58;;;;;;;4.97;1.40;;;;;;;25.20;47.42;99199.38;5044016;28;20048;-83
2021/08/10 11:31:34;;;;;;;4.28;1.80;;;;;;;25.11;45.95;99195.47;5053260;28;20044;-82
2021/08/10 11:34:01;;;;;;;3.95;1.48;;;;;;;24.81;47.16;99196.34;5050231;28;20041;-83
2021/08/10 11:36:30;;;;;;;4.40;1.70;;;;;;;24.94;46.19;99200.53;5054460;28;20087;-83
2021/08/10 11:39:10;;;;;;;3.13;1.30;;;;;;;24.83;47.11;99206.06;5038227;28;20073;-82
2021/08/10 11:41:39;;;;;;;7.72;1.70;;;;;;;24.62;47.85;99190.50;5054408;28;20443;-82
2021/08/10 11:44:17;;;;;;;6.18;1.40;;;;;;;24.34;48.18;99201.84;5049220;28;20044;-83
2021/08/10 11:46:44;;;;;;;5.15;1.48;;;;;;;24.69;50.69;99203.03;5035455;28;20513;-82
2021/08/10 11:49:16;;;;;;;5.35;1.48;;;;;;;25.00;49.74;99200.22;5049127;28;20110;-82